Time;durP1;ratioP1;P1;durP2;ratioP2;P2;SDS_P1;SDS_P2;PMS_P1;PMS_P2;Temp;Humidity;BMP_temperature;BMP_pressure;BME280_temperature;BME280_humidity;BME280_pressure;Samples;Min_cycle;Max_cycle;Signal;HPM_P1;HPM_P2
2024/02/24 00:00:34;;;;;;;1.05;0.70;;;;;;;2.90;100.00;98147.88;5038898;28;20450;-75
2024/02/24 00:02:59;;;;;;;1.17;1.08;;;;;;;2.84;100.00;98151.28;5038735;28;20481;-75
2024/02/24 00:05:26;;;;;;;3.42;1.58;;;;;;;2.79;100.00;98149.19;5038528;28;20029;-76
2024/02/24 00:07:53;;;;;;;1.17;0.82;;;;;;;2.92;100.00;98153.81;5042555;28;20030;-75
2024/02/24 00:10:19;;;;;;;1.85;0.70;;;;;;;3.12;100.00;98164.59;5042334;28;20059;-75
2024/02/24 00:12:45;;;;;;;5.47;0.90;;;;;;;3.24;100.00;98175.53;5042419;28;20512;-75
2024/02/24 00:15:11;;;;;;;0.68;0.68;;;;;;;3.32;100.00;98187.84;5058935;28;20040;-75
2024/02/24 00:17:38;;;;;;;6.32;1.20;;;;;;;3.40;100.00;98182.38;5042316;28;20032;-75
2024/02/24 00:20:08;;;;;;;2.90;1.00;;;;;;;3.40;100.00;98172.56;5058806;28;20048;-75
2024/02/24 00:22:35;;;;;;;0.52;0.52;;;;;;;3.43;100.00;98180.16;5075010;28;20024;-75
2024/02/24 00:25:00;;;;;;;1.73;1.05;;;;;;;3.42;100.00;98178.53;5042015;28;20115;-75
2024/02/24 00:27:26;;;;;;;5.20;1.38;;;;;;;3.41;100.00;98176.88;5058721;28;20119;-75
2024/02/24 00:29:51;;;;;;;0.40;0.40;;;;;;;3.47;100.00;98196.53;5042133;28;20036;-75
2024/02/24 00:32:17;;;;;;;0.50;0.50;;;;;;;3.50;100.00;98191.66;5042013;28;20048;-75
2024/02/24 00:34:44;;;;;;;0.50;0.50;;;;;;;3.52;100.00;98192.28;5041964;28;20032;-75
2024/02/24 00:37:10;;;;;;;0.98;0.75;;;;;;;3.58;100.00;98189.88;5075053;28;20024;-76
2024/02/24 00:39:36;;;;;;;5.93;1.77;;;;;;;3.57;100.00;98190.88;5057956;28;20069;-75
2024/02/24 00:42:03;;;;;;;0.50;0.50;;;;;;;3.60;100.00;98175.38;5041932;28;20032;-75
2024/02/24 00:44:30;;;;;;;1.75;0.80;;;;;;;3.56;100.00;98183.94;5058608;28;20027;-75
2024/02/24 00:46:56;;;;;;;0.68;0.68;;;;;;;3.44;100.00;98188.94;5074843;28;20116;-75
2024/02/24 00:49:22;;;;;;;6.05;1.02;;;;;;;3.23;100.00;98195.13;5041712;28;20562;-75
2024/02/24 00:51:48;;;;;;;2.70;0.75;;;;;;;3.09;100.00;98192.34;5058377;28;20038;-75
2024/02/24 00:54:14;;;;;;;2.08;0.82;;;;;;;3.14;100.00;98204.22;5058262;28;20020;-75
2024/02/24 00:56:40;;;;;;;1.30;0.95;;;;;;;3.16;100.00;98204.88;5041633;28;20021;-75
2024/02/24 00:59:05;;;;;;;4.78;1.45;;;;;;;3.03;100.00;98209.03;5041599;28;20407;-76
2024/02/24 01:01:31;;;;;;;8.18;1.33;;;;;;;2.91;100.00;98205.25;5057639;28;20519;-76
2024/02/24 01:03:57;;;;;;;3.50;1.55;;;;;;;2.78;100.00;98213.06;5041528;28;20039;-75
2024/02/24 01:06:22;;;;;;;3.50;1.30;;;;;;;2.65;100.00;98219.06;5041468;28;20393;-75
2024/02/24 01:08:48;;;;;;;4.70;1.63;;;;;;;2.69;100.00;98224.81;5057472;28;20417;-75
2024/02/24 01:11:15;;;;;;;1.15;0.98;;;;;;;2.85;100.00;98229.88;5024627;28;20382;-75
2024/02/24 01:13:42;;;;;;;3.15;1.13;;;;;;;3.01;100.00;98228.81;5041199;28;20538;-75
2024/02/24 01:16:08;;;;;;;0.60;0.60;;;;;;;3.14;100.00;98234.25;5057814;28;20518;-75
2024/02/24 01:18:33;;;;;;;1.55;0.63;;;;;;;3.21;100.00;98239.63;5040186;28;20074;-75
2024/02/24 01:20:59;;;;;;;6.47;1.17;;;;;;;3.27;100.00;98245.00;5057363;28;20155;-75
2024/02/24 01:23:25;;;;;;;2.67;0.95;;;;;;;3.35;100.00;98240.56;5057303;28;20025;-75
2024/02/24 01:25:50;;;;;;;4.22;1.13;;;;;;;3.35;100.00;98249.34;5040773;28;20072;-75
2024/02/24 01:28:17;;;;;;;1.23;0.75;;;;;;;3.33;100.00;98245.25;5057094;28;20107;-75
2024/02/24 01:30:42;;;;;;;5.45;0.90;;;;;;;3.30;100.00;98247.25;5074041;28;20067;-75
2024/02/24 01:33:09;;;;;;;1.65;1.20;;;;;;;3.38;100.00;98253.47;5040894;28;20064;-75
2024/02/24 01:35:35;;;;;;;1.67;0.93;;;;;;;3.36;100.00;98263.44;5040950;28;20118;-75
2024/02/24 01:38:01;;;;;;;4.40;0.98;;;;;;;3.27;100.00;98270.75;5040764;28;20127;-75
2024/02/24 01:40:28;;;;;;;6.00;1.23;;;;;;;3.28;100.00;98277.69;5041242;28;20099;-75
2024/02/24 01:42:54;;;;;;;2.95;0.80;;;;;;;3.35;100.00;98269.78;5073470;28;20031;-75
2024/02/24 01:45:21;;;;;;;1.33;1.02;;;;;;;3.32;100.00;98278.16;5040505;28;20029;-75
2024/02/24 01:47:49;;;;;;;1.88;0.90;;;;;;;3.23;100.00;98282.78;5073637;28;20040;-75
2024/02/24 01:50:15;;;;;;;3.08;0.95;;;;;;;3.07;100.00;98284.66;5040787;28;20025;-75
2024/02/24 01:52:44;;;;;;;4.18;1.00;;;;;;;2.81;100.00;98284.34;5057444;28;20035;-76
2024/02/24 01:55:10;;;;;;;3.25;0.90;;;;;;;2.59;100.00;98283.47;5040424;28;20060;-75
2024/02/24 01:57:44;;;;;;;1.33;1.05;;;;;;;2.51;100.00;98289.69;5023928;28;20072;-75
2024/02/24 02:00:11;;;;;;;2.50;1.00;;;;;;;2.35;100.00;98289.91;5040713;28;20036;-75
2024/02/24 02:02:40;;;;;;;3.78;1.00;;;;;;;2.18;100.00;98286.63;5056711;28;20035;-75
2024/02/24 02:05:07;;;;;;;2.10;1.23;;;;;;;2.15;100.00;98298.41;5056704;28;20027;-75
2024/02/24 02:07:38;;;;;;;2.35;0.98;;;;;;;2.13;100.00;98296.94;5040476;28;20035;-75
2024/02/24 02:10:05;;;;;;;6.75;1.15;;;;;;;2.16;100.00;98300.03;5023806;28;20452;-75
2024/02/24 02:12:35;;;;;;;3.58;1.33;;;;;;;2.15;100.00;98314.31;5057528;28;20036;-75
2024/02/24 02:15:03;;;;;;;5.13;1.30;;;;;;;2.00;100.00;98318.78;5040152;28;20028;-76
2024/02/24 02:17:32;;;;;;;4.80;1.23;;;;;;;1.76;100.00;98323.28;5072833;28;20033;-75
2024/02/24 02:20:04;;;;;;;3.47;1.30;;;;;;;1.63;100.00;98320.44;5056131;28;20039;-75
2024/02/24 02:22:33;;;;;;;0.70;0.70;;;;;;;1.56;100.00;98327.44;5073068;28;20469;-75
2024/02/24 02:25:01;;;;;;;2.88;1.00;;;;;;;1.51;100.00;98328.00;5072892;28;20033;-75
2024/02/24 02:27:26;;;;;;;3.03;1.02;;;;;;;1.46;100.00;98340.94;5072456;28;20558;-75
2024/02/24 02:29:52;;;;;;;7.45;1.27;;;;;;;1.45;100.00;98335.81;5055777;28;20459;-75
2024/02/24 02:32:18;;;;;;;2.35;0.93;;;;;;;1.45;100.00;98338.44;5056433;28;20459;-75
2024/02/24 02:34:43;;;;;;;4.70;0.80;;;;;;;1.48;100.00;98346.88;5039777;28;20420;-75
2024/02/24 02:37:09;;;;;;;1.52;0.88;;;;;;;1.38;100.00;98351.59;5039770;28;20363;-75
2024/02/24 02:39:35;;;;;;;2.47;1.33;;;;;;;1.18;100.00;98353.03;5039469;28;20375;-75
2024/02/24 02:42:00;;;;;;;2.83;0.95;;;;;;;1.24;100.00;98366.38;5072579;28;20032;-75
2024/02/24 02:44:26;;;;;;;1.45;0.57;;;;;;;1.26;100.00;98372.31;5039505;28;20120;-75
2024/02/24 02:46:51;;;;;;;1.23;1.08;;;;;;;1.14;100.00;98368.44;5055681;28;20023;-76
2024/02/24 02:49:18;;;;;;;0.50;0.50;;;;;;;1.07;100.00;98381.53;5039581;28;20035;-75
2024/02/24 02:51:44;;;;;;;1.15;0.80;;;;;;;1.06;100.00;98382.53;5055670;28;20054;-75
2024/02/24 02:54:10;;;;;;;2.15;1.17;;;;;;;1.01;100.00;98384.06;5039161;28;20474;-75
2024/02/24 02:56:35;;;;;;;2.72;1.05;;;;;;;0.94;100.00;98381.28;5039517;28;20039;-75
2024/02/24 02:59:01;;;;;;;0.80;0.80;;;;;;;0.74;100.00;98385.31;5056065;28;20354;-75
2024/02/24 03:01:28;;;;;;;1.60;1.10;;;;;;;0.65;100.00;98385.34;5056466;28;20029;-75
2024/02/24 03:03:53;;;;;;;2.25;1.25;;;;;;;0.53;100.00;98397.31;5038997;28;20477;-75
2024/02/24 03:06:20;;;;;;;3.90;1.02;;;;;;;0.51;100.00;98393.19;5055649;28;20024;-75
2024/02/24 03:08:46;;;;;;;1.95;1.55;;;;;;;0.53;100.00;98399.09;5055412;28;20484;-75
2024/02/24 03:11:18;;;;;;;0.60;0.60;;;;;;;0.65;100.00;98413.63;5039368;28;20029;-75
2024/02/24 03:13:44;;;;;;;2.97;0.80;;;;;;;0.64;100.00;98417.28;5056306;28;20074;-75
2024/02/24 03:16:10;;;;;;;3.15;1.48;;;;;;;0.74;100.00;98427.63;5022958;28;20060;-75
2024/02/24 03:18:36;;;;;;;1.35;1.25;;;;;;;0.69;100.00;98428.16;5039308;28;20470;-75
2024/02/24 03:21:01;;;;;;;1.33;0.90;;;;;;;0.53;100.00;98428.19;5055554;28;20410;-75
2024/02/24 03:23:27;;;;;;;1.10;0.80;;;;;;;0.28;100.00;98445.91;5072099;28;20088;-75
2024/02/24 03:25:53;;;;;;;7.53;0.90;;;;;;;0.20;100.00;98433.53;5038957;28;20033;-75
2024/02/24 03:28:18;;;;;;;0.50;0.50;;;;;;;0.06;100.00;98450.91;5039107;28;20123;-75
2024/02/24 03:30:44;;;;;;;2.10;0.80;;;;;;;-0.04;100.00;98452.88;5039169;28;20086;-75
2024/02/24 03:33:12;;;;;;;1.20;0.88;;;;;;;-0.08;100.00;98455.03;5056142;28;20021;-75
2024/02/24 03:35:38;;;;;;;6.22;0.82;;;;;;;-0.21;100.00;98457.31;5039392;28;20039;-75
2024/02/24 03:38:04;;;;;;;1.40;0.98;;;;;;;-0.31;100.00;98459.28;5023182;28;20115;-75
2024/02/24 03:40:30;;;;;;;0.70;0.70;;;;;;;-0.30;100.00;98467.03;5039177;28;20501;-75
2024/02/24 03:42:55;;;;;;;0.57;0.57;;;;;;;-0.22;100.00;98474.97;5043009;28;20036;-75
2024/02/24 03:45:21;;;;;;;0.50;0.50;;;;;;;-0.12;100.00;98477.47;5042617;28;20036;-75
2024/02/24 03:47:47;;;;;;;3.42;0.80;;;;;;;0.17;100.00;98486.72;5077177;28;20103;-75
2024/02/24 03:50:13;;;;;;;1.30;0.93;;;;;;;0.26;100.00;98498.13;5042795;28;20127;-75
2024/02/24 03:52:39;;;;;;;0.60;0.60;;;;;;;0.30;100.00;98494.16;5042867;28;20028;-75
2024/02/24 03:55:05;;;;;;;0.95;0.95;;;;;;;0.20;100.00;98491.69;5075845;28;20024;-75
2024/02/24 03:57:33;;;;;;;2.42;0.85;;;;;;;0.17;100.00;98507.88;5058899;28;20027;-75
2024/02/24 03:59:59;;;;;;;0.55;0.55;;;;;;;0.02;100.00;98494.47;5042576;28;20472;-75
2024/02/24 04:02:25;;;;;;;0.50;0.50;;;;;;;0.00;100.00;98501.75;5043209;28;20038;-75
2024/02/24 04:04:52;;;;;;;0.68;0.68;;;;;;;0.07;100.00;98501.91;5042451;28;20119;-75
2024/02/24 04:07:17;;;;;;;3.20;0.80;;;;;;;0.03;100.00;98504.06;5042656;28;20028;-75
2024/02/24 04:09:43;;;;;;;0.65;0.63;;;;;;;-0.06;100.00;98503.22;5042521;28;20123;-75
2024/02/24 04:12:09;;;;;;;3.70;0.65;;;;;;;0.09;100.00;98508.69;5059079;28;20478;-74
2024/02/24 04:14:35;;;;;;;0.50;0.50;;;;;;;0.22;100.00;98514.31;5042517;28;20040;-75
2024/02/24 04:17:00;;;;;;;0.70;0.70;;;;;;;0.30;100.00;98525.88;5075405;28;20060;-75
2024/02/24 04:19:26;;;;;;;0.60;0.60;;;;;;;0.17;100.00;98523.72;5042350;28;20344;-75
2024/02/24 04:21:51;;;;;;;2.72;0.60;;;;;;;0.07;100.00;98539.72;5058779;28;20029;-75
2024/02/24 04:24:17;;;;;;;1.10;0.98;;;;;;;0.02;100.00;98546.50;5042174;28;20029;-75
2024/02/24 04:26:43;;;;;;;0.82;0.82;;;;;;;0.06;100.00;98556.59;5042141;28;20032;-75
2024/02/24 04:29:08;;;;;;;1.33;0.85;;;;;;;0.23;100.00;98560.06;5042104;28;20028;-75
2024/02/24 04:31:34;;;;;;;1.02;0.90;;;;;;;0.36;100.00;98565.69;5042093;28;20029;-75
2024/02/24 04:34:00;;;;;;;0.77;0.77;;;;;;;0.38;100.00;98566.34;5042005;28;20032;-74
2024/02/24 04:36:25;;;;;;;0.50;0.50;;;;;;;0.40;100.00;98574.13;5074806;28;20024;-75
2024/02/24 04:38:51;;;;;;;0.80;0.80;;;;;;;0.43;100.00;98581.72;5041677;28;20493;-75
2024/02/24 04:41:17;;;;;;;0.80;0.80;;;;;;;0.44;100.00;98581.56;5041902;28;20102;-75
2024/02/24 04:43:42;;;;;;;3.42;0.70;;;;;;;0.50;100.00;98587.19;5057910;28;20020;-75
2024/02/24 04:46:08;;;;;;;0.70;0.70;;;;;;;0.65;100.00;98593.47;5041552;28;20035;-75
2024/02/24 04:48:33;;;;;;;1.02;0.75;;;;;;;0.79;100.00;98592.78;5058145;28;20123;-74
2024/02/24 04:50:59;;;;;;;0.63;0.63;;;;;;;0.94;100.00;98600.06;5042608;28;20024;-75
2024/02/24 04:53:25;;;;;;;0.55;0.55;;;;;;;1.13;100.00;98604.16;5042047;28;20475;-75
2024/02/24 04:55:50;;;;;;;3.40;1.05;;;;;;;1.25;100.00;98602.84;5041623;28;20081;-75
2024/02/24 04:58:16;;;;;;;0.93;0.70;;;;;;;1.35;100.00;98603.47;5041611;28;20144;-75
2024/02/24 05:00:42;;;;;;;0.60;0.60;;;;;;;1.38;100.00;98618.19;5041597;28;20043;-75
2024/02/24 05:03:07;;;;;;;0.80;0.80;;;;;;;1.41;100.00;98623.97;5041216;28;20021;-75
2024/02/24 05:05:33;;;;;;;0.85;0.60;;;;;;;1.47;100.00;98646.28;5041264;28;20035;-75
2024/02/24 05:07:59;;;;;;;2.30;0.80;;;;;;;1.60;100.00;98648.41;5057901;28;20111;-75
2024/02/24 05:10:24;;;;;;;0.70;0.70;;;;;;;1.96;100.00;98643.50;5057952;28;20024;-75
2024/02/24 05:12:50;;;;;;;0.70;0.50;;;;;;;2.42;100.00;98644.38;5041262;28;20122;-75
2024/02/24 05:15:19;;;;;;;0.50;0.50;;;;;;;2.82;100.00;98629.16;5041238;28;20036;-75
2024/02/24 05:17:45;;;;;;;0.50;0.50;;;;;;;3.09;100.00;98626.94;5057913;28;20024;-75
2024/02/24 05:20:15;;;;;;;0.50;0.50;;;;;;;3.03;100.00;98622.38;5040946;28;20033;-75
2024/02/24 05:22:40;;;;;;;0.40;0.40;;;;;;;2.88;100.00;98621.50;5057648;28;20032;-75
2024/02/24 05:25:08;;;;;;;0.50;0.50;;;;;;;2.61;100.00;98626.34;5074617;28;20027;-75
2024/02/24 05:27:33;;;;;;;0.50;0.50;;;;;;;2.36;100.00;98623.06;5057580;28;20071;-75
2024/02/24 05:29:59;;;;;;;0.45;0.45;;;;;;;2.18;100.00;98636.59;5040973;28;20051;-75
2024/02/24 05:32:25;;;;;;;0.40;0.40;;;;;;;1.97;100.00;98623.94;5040930;28;20028;-75
2024/02/24 05:34:50;;;;;;;0.40;0.40;;;;;;;1.85;100.00;98630.59;5040832;28;20032;-75
2024/02/24 05:37:16;;;;;;;0.40;0.40;;;;;;;1.74;100.00;98643.22;5040797;28;20033;-75
2024/02/24 05:39:44;;;;;;;0.50;0.50;;;;;;;1.69;100.00;98644.72;5040828;28;20029;-75
2024/02/24 05:42:10;;;;;;;0.40;0.40;;;;;;;1.58;100.00;98645.94;5057672;28;20523;-75
2024/02/24 05:44:35;;;;;;;0.50;0.50;;;;;;;1.37;100.00;98648.28;5040533;28;20122;-75
2024/02/24 05:47:01;;;;;;;0.50;0.50;;;;;;;1.09;100.00;98652.16;5040587;28;20058;-75
2024/02/24 05:49:27;;;;;;;0.50;0.50;;;;;;;1.03;100.00;98652.81;5056971;28;20024;-75
2024/02/24 05:51:53;;;;;;;0.40;0.40;;;;;;;1.06;100.00;98657.78;5040844;28;20362;-74
2024/02/24 05:54:19;;;;;;;0.50;0.50;;;;;;;1.10;100.00;98666.22;5057067;28;20028;-74
2024/02/24 05:56:44;;;;;;;0.50;0.50;;;;;;;1.09;100.00;98670.69;5040195;28;20035;-75
2024/02/24 05:59:10;;;;;;;0.50;0.50;;;;;;;0.91;100.00;98683.25;5040443;28;20358;-75
2024/02/24 06:01:35;;;;;;;0.50;0.50;;;;;;;0.70;100.00;98683.72;5056537;28;20117;-74
2024/02/24 06:04:01;;;;;;;0.40;0.40;;;;;;;0.72;100.00;98681.75;5072889;28;20074;-74
2024/02/24 06:06:27;;;;;;;0.40;0.40;;;;;;;0.75;100.00;98692.00;5039943;28;20062;-74
2024/02/24 06:08:53;;;;;;;0.40;0.40;;;;;;;0.96;100.00;98698.63;5041031;28;20086;-75
2024/02/24 06:11:18;;;;;;;0.50;0.50;;;;;;;1.03;100.00;98707.56;5040256;28;20378;-75
2024/02/24 06:13:46;;;;;;;0.50;0.50;;;;;;;1.07;100.00;98712.34;5040090;28;20025;-75
2024/02/24 06:16:12;;;;;;;0.50;0.50;;;;;;;1.08;100.00;98703.41;5040248;28;20403;-75
2024/02/24 06:18:38;;;;;;;0.45;0.45;;;;;;;1.15;100.00;98706.25;5073105;28;20172;-75
2024/02/24 06:21:06;;;;;;;0.50;0.50;;;;;;;1.26;100.00;98713.84;5039898;28;20040;-75
2024/02/24 06:23:31;;;;;;;0.50;0.50;;;;;;;1.38;100.00;98724.94;5056297;28;20075;-75
2024/02/24 06:25:57;;;;;;;0.50;0.50;;;;;;;1.42;100.00;98722.78;5039725;28;20029;-75
2024/02/24 06:28:22;;;;;;;0.50;0.50;;;;;;;1.42;100.00;98730.72;5056033;28;20100;-75
2024/02/24 06:30:48;;;;;;;0.50;0.50;;;;;;;1.54;100.00;98740.81;5056421;28;20105;-75
2024/02/24 06:33:14;;;;;;;0.50;0.50;;;;;;;1.61;100.00;98750.72;5039839;28;20182;-75
2024/02/24 06:35:39;;;;;;;0.50;0.50;;;;;;;1.68;100.00;98757.00;5039758;28;20458;-75
2024/02/24 06:38:05;;;;;;;0.40;0.40;;;;;;;1.75;100.00;98758.81;5055889;28;20027;-75
2024/02/24 06:40:31;;;;;;;0.40;0.40;;;;;;;1.72;100.00;98766.25;5039804;28;20028;-75
2024/02/24 06:42:57;;;;;;;0.45;0.45;;;;;;;1.60;100.00;98760.50;5039679;28;20335;-75
2024/02/24 06:45:22;;;;;;;0.50;0.50;;;;;;;1.45;100.00;98768.28;5039481;28;20028;-75
2024/02/24 06:47:48;;;;;;;0.50;0.50;;;;;;;1.31;100.00;98776.91;5055681;28;20024;-75
2024/02/24 06:50:14;;;;;;;0.50;0.50;;;;;;;1.17;100.00;98775.72;5039213;28;20024;-75
2024/02/24 06:52:39;;;;;;;0.50;0.50;;;;;;;1.10;100.00;98774.72;5039586;28;20373;-75
2024/02/24 06:55:07;;;;;;;0.50;0.50;;;;;;;1.08;100.00;98774.88;5073545;28;20029;-75
2024/02/24 06:57:33;;;;;;;0.50;0.50;;;;;;;0.99;100.00;98783.81;5039761;28;20082;-75
2024/02/24 06:59:59;;;;;;;0.50;0.50;;;;;;;1.00;100.00;98777.50;5039443;28;20036;-75
2024/02/24 07:02:24;;;;;;;0.50;0.50;;;;;;;1.04;100.00;98772.75;5039458;28;20082;-75
2024/02/24 07:04:50;;;;;;;0.50;0.50;;;;;;;0.94;100.00;98775.53;5039269;28;20035;-75
2024/02/24 07:07:16;;;;;;;0.50;0.50;;;;;;;0.92;100.00;98776.69;5039367;28;20048;-75
2024/02/24 07:09:42;;;;;;;0.50;0.50;;;;;;;0.96;100.00;98778.03;5056050;28;20028;-75
2024/02/24 07:12:08;;;;;;;0.50;0.50;;;;;;;0.95;100.00;98797.53;5039381;28;20028;-75
2024/02/24 07:14:35;;;;;;;0.50;0.50;;;;;;;0.85;100.00;98787.91;5055915;28;20031;-75
2024/02/24 07:17:01;;;;;;;0.50;0.50;;;;;;;0.93;100.00;98794.19;5058742;28;20048;-75
2024/02/24 07:19:27;;;;;;;0.50;0.50;;;;;;;1.03;100.00;98779.00;5043429;28;20064;-75
2024/02/24 07:21:52;;;;;;;0.50;0.50;;;;;;;1.19;100.00;98794.94;5076503;28;20028;-75
2024/02/24 07:24:18;;;;;;;0.50;0.50;;;;;;;1.26;100.00;98795.91;5076048;28;20031;-75
2024/02/24 07:26:44;;;;;;;0.40;0.40;;;;;;;1.24;100.00;98797.06;5043336;28;20029;-75
2024/02/24 07:29:10;;;;;;;0.50;0.50;;;;;;;1.12;100.00;98787.81;5043168;28;20128;-75
2024/02/24 07:31:36;;;;;;;0.50;0.50;;;;;;;1.20;100.00;98779.88;5059321;28;20114;-74
2024/02/24 07:34:02;;;;;;;0.50;0.50;;;;;;;1.36;100.00;98789.66;5076161;28;20051;-74
2024/02/24 07:36:29;;;;;;;0.50;0.50;;;;;;;1.27;100.00;98784.34;5042683;28;20064;-74
2024/02/24 07:38:58;;;;;;;0.50;0.50;;;;;;;1.01;100.00;98788.94;5059363;28;20035;-74
2024/02/24 07:41:24;;;;;;;0.50;0.50;;;;;;;0.77;100.00;98790.56;5075842;28;20016;-75
2024/02/24 07:43:50;;;;;;;0.40;0.40;;;;;;;0.78;100.00;98799.31;5042984;28;20077;-74
2024/02/24 07:46:27;;;;;;;0.50;0.50;;;;;;;0.82;100.00;98808.56;5059493;28;20020;-74
2024/02/24 07:48:57;;;;;;;0.40;0.40;;;;;;;0.91;100.00;98807.59;5075962;28;20082;-74
2024/02/24 07:51:23;;;;;;;0.50;0.50;;;;;;;0.92;100.00;98811.91;5059539;28;20462;-74
2024/02/24 07:53:48;;;;;;;0.55;0.55;;;;;;;0.85;100.00;98811.72;5042719;28;20032;-74
2024/02/24 07:56:14;;;;;;;0.50;0.50;;;;;;;0.82;100.00;98816.50;5042743;28;20037;-74
2024/02/24 07:58:40;;;;;;;0.50;0.50;;;;;;;0.99;100.00;98809.44;5042672;28;20035;-74
2024/02/24 08:01:06;;;;;;;0.50;0.50;;;;;;;1.03;100.00;98808.97;5042679;28;20032;-74
2024/02/24 08:03:32;;;;;;;0.50;0.50;;;;;;;1.23;100.00;98819.25;5042598;28;20028;-75
2024/02/24 08:05:57;;;;;;;0.50;0.50;;;;;;;1.36;100.00;98818.78;5025865;28;20029;-74
2024/02/24 08:08:23;;;;;;;0.50;0.50;;;;;;;1.49;100.00;98829.69;5058912;28;20021;-74
2024/02/24 08:10:49;;;;;;;0.50;0.50;;;;;;;1.63;100.00;98834.31;5059023;28;20025;-74
2024/02/24 08:13:15;;;;;;;0.50;0.50;;;;;;;1.66;100.00;98841.13;5042427;28;20521;-75
2024/02/24 08:15:40;;;;;;;0.40;0.40;;;;;;;1.78;100.00;98839.81;5042347;28;20040;-75
2024/02/24 08:18:06;;;;;;;0.50;0.50;;;;;;;1.75;100.00;98843.59;5042334;28;20070;-75
2024/02/24 08:20:32;;;;;;;0.50;0.50;;;;;;;1.63;100.00;98844.94;5058875;28;20037;-75
2024/02/24 08:22:58;;;;;;;0.50;0.50;;;;;;;1.56;100.00;98849.22;5042056;28;20081;-75
2024/02/24 08:25:25;;;;;;;0.50;0.50;;;;;;;1.81;100.00;98857.19;5041833;28;20032;-75
2024/02/24 08:27:51;;;;;;;0.50;0.50;;;;;;;2.09;100.00;98869.09;5041325;28;20163;-75
2024/02/24 08:30:17;;;;;;;0.50;0.50;;;;;;;2.17;100.00;98874.38;5041894;28;20067;-75
2024/02/24 08:32:43;;;;;;;0.40;0.40;;;;;;;2.31;100.00;98882.66;5058536;28;20040;-75
2024/02/24 08:35:09;;;;;;;0.50;0.50;;;;;;;2.49;100.00;98906.28;5042918;28;20037;-75
2024/02/24 08:37:34;;;;;;;0.50;0.50;;;;;;;2.60;100.00;98905.97;5042918;28;20040;-75
2024/02/24 08:40:00;;;;;;;0.50;0.50;;;;;;;2.81;100.00;98918.66;5042251;28;20039;-75
2024/02/24 08:42:26;;;;;;;0.50;0.50;;;;;;;2.92;100.00;98925.44;5041690;28;20029;-75
2024/02/24 08:44:51;;;;;;;0.50;0.50;;;;;;;3.16;100.00;98927.97;5041573;28;20024;-75
2024/02/24 08:47:17;;;;;;;0.50;0.50;;;;;;;3.47;100.00;98940.44;5041664;28;20032;-75
2024/02/24 08:49:43;;;;;;;0.50;0.50;;;;;;;4.31;100.00;98937.81;5041663;28;20036;-75
2024/02/24 08:52:08;;;;;;;0.60;0.60;;;;;;;5.25;100.00;98935.50;5041630;28;20036;-75
2024/02/24 08:54:34;;;;;;;0.60;0.60;;;;;;;5.85;100.00;98950.31;5041858;28;20059;-75
2024/02/24 08:57:00;;;;;;;0.50;0.50;;;;;;;6.04;100.00;98946.22;5043070;28;20467;-75
2024/02/24 08:59:26;;;;;;;0.50;0.50;;;;;;;6.13;100.00;98958.41;5058163;28;20123;-76
2024/02/24 09:01:53;;;;;;;0.40;0.40;;;;;;;6.27;100.00;98955.84;5042118;28;20131;-76
2024/02/24 09:04:19;;;;;;;0.50;0.50;;;;;;;5.70;100.00;98953.03;5058183;28;20021;-76
2024/02/24 09:06:44;;;;;;;0.50;0.50;;;;;;;6.79;100.00;98967.97;5057692;28;20439;-76
2024/02/24 09:09:14;;;;;;;0.50;0.50;;;;;;;7.48;100.00;98953.72;5041429;28;20024;-76
2024/02/24 09:11:41;;;;;;;0.60;0.60;;;;;;;8.10;100.00;98958.03;5041982;28;20025;-76
2024/02/24 09:14:07;;;;;;;0.50;0.50;;;;;;;8.49;100.00;98964.44;5074388;28;20032;-76
2024/02/24 09:16:32;;;;;;;0.50;0.50;;;;;;;8.88;100.00;98967.31;5075509;28;20028;-75
2024/02/24 09:18:58;;;;;;;0.50;0.50;;;;;;;9.10;100.00;98963.34;5057827;28;20374;-75
2024/02/24 09:21:24;;;;;;;0.52;0.52;;;;;;;9.32;100.00;98973.81;5074663;28;20035;-75
2024/02/24 09:23:49;;;;;;;0.60;0.60;;;;;;;9.53;100.00;98973.53;5041161;28;20043;-76
2024/02/24 09:26:16;;;;;;;0.50;0.50;;;;;;;9.75;100.00;98982.09;5040845;28;20036;-75
2024/02/24 09:28:42;;;;;;;0.50;0.50;;;;;;;9.94;100.00;98976.84;5057534;28;20057;-76
2024/02/24 09:31:09;;;;;;;0.50;0.50;;;;;;;10.17;100.00;98985.16;5040957;28;20032;-76
2024/02/24 09:33:35;;;;;;;0.60;0.60;;;;;;;10.34;100.00;98991.69;5040867;28;20508;-75
2024/02/24 09:36:01;;;;;;;0.60;0.60;;;;;;;10.44;100.00;98993.88;5057360;28;20029;-76
2024/02/24 09:38:27;;;;;;;0.52;0.52;;;;;;;10.49;100.00;98994.06;5024027;28;20032;-76
2024/02/24 09:40:52;;;;;;;0.50;0.50;;;;;;;10.54;100.00;98990.72;5073528;28;20043;-76
2024/02/24 09:43:18;;;;;;;0.50;0.50;;;;;;;10.65;100.00;98994.56;5040790;28;20082;-76
2024/02/24 09:45:47;;;;;;;0.60;0.60;;;;;;;10.76;100.00;98994.66;5040860;28;20075;-76
2024/02/24 09:48:14;;;;;;;0.57;0.57;;;;;;;10.88;100.00;98991.28;5057247;28;20028;-76
2024/02/24 09:50:40;;;;;;;0.52;0.52;;;;;;;11.05;100.00;99000.41;5040561;28;20118;-76
2024/02/24 09:53:07;;;;;;;0.50;0.50;;;;;;;11.08;100.00;99004.50;5040520;28;20032;-76
2024/02/24 09:55:34;;;;;;;0.50;0.50;;;;;;;11.27;100.00;99016.94;5057160;28;20469;-76
2024/02/24 09:58:01;;;;;;;0.60;0.60;;;;;;;11.42;100.00;99009.31;5056971;28;20070;-76
2024/02/24 10:00:27;;;;;;;0.55;0.55;;;;;;;11.60;100.00;99010.38;5073545;28;20063;-75
2024/02/24 10:02:52;;;;;;;0.50;0.50;;;;;;;11.83;100.00;99018.59;5040104;28;20060;-76
2024/02/24 10:05:18;;;;;;;0.50;0.50;;;;;;;11.97;100.00;99026.53;5056746;28;20020;-76
2024/02/24 10:07:47;;;;;;;0.50;0.50;;;;;;;12.08;100.00;99025.75;5056888;28;20036;-76
2024/02/24 10:10:16;;;;;;;0.50;0.50;;;;;;;12.10;100.00;99029.84;5040223;28;20097;-76
2024/02/24 10:12:58;;;;;;;0.50;0.50;;;;;;;12.15;100.00;99033.75;5072954;28;20375;-76
2024/02/24 10:15:24;;;;;;;0.40;0.40;;;;;;;12.21;100.00;99030.94;5073113;28;20082;-76
2024/02/24 10:17:54;;;;;;;0.50;0.50;;;;;;;12.32;100.00;99038.25;5056384;28;20380;-76
2024/02/24 10:20:20;;;;;;;0.50;0.50;;;;;;;12.47;100.00;99047.81;5072694;28;20039;-76
2024/02/24 10:22:46;;;;;;;0.60;0.60;;;;;;;12.56;100.00;99046.41;5056247;28;20107;-76
2024/02/24 10:25:12;;;;;;;0.52;0.52;;;;;;;12.67;100.00;99048.31;5056213;28;20031;-76
2024/02/24 10:27:39;;;;;;;0.50;0.50;;;;;;;12.85;100.00;99043.88;5056488;28;20024;-76
2024/02/24 10:30:06;;;;;;;0.50;0.50;;;;;;;12.90;100.00;99052.91;5072853;28;20036;-76
2024/02/24 10:32:33;;;;;;;0.50;0.50;;;;;;;13.01;100.00;99053.16;5072630;28;20085;-76
2024/02/24 10:34:59;;;;;;;0.50;0.50;;;;;;;13.13;100.00;99054.00;5039754;28;20123;-76
2024/02/24 10:37:27;;;;;;;0.40;0.40;;;;;;;13.25;100.00;99054.00;5039771;28;20029;-76
2024/02/24 10:39:52;;;;;;;0.40;0.40;;;;;;;13.09;100.00;99053.63;5040037;28;20469;-76
2024/02/24 10:42:22;;;;;;;0.50;0.50;;;;;;;13.08;100.00;99059.28;5072477;28;20025;-76
2024/02/24 10:44:51;;;;;;;0.60;0.60;;;;;;;13.09;100.00;99061.72;5056053;28;20054;-76
2024/02/24 10:47:17;;;;;;;0.40;0.40;;;;;;;13.18;100.00;99060.34;5039627;28;20153;-76
2024/02/24 10:49:42;;;;;;;0.50;0.50;;;;;;;13.34;100.00;99063.44;5056036;28;20054;-76
2024/02/24 10:52:08;;;;;;;0.40;0.40;;;;;;;13.34;100.00;99069.66;5039867;28;20124;-76
2024/02/24 10:54:35;;;;;;;0.57;0.57;;;;;;;13.43;100.00;99072.00;5072311;28;20056;-76
2024/02/24 10:57:02;;;;;;;0.50;0.50;;;;;;;13.37;100.00;99063.78;5039052;28;20111;-76
2024/02/24 10:59:31;;;;;;;0.50;0.50;;;;;;;13.38;100.00;99067.28;5072676;28;20031;-76
2024/02/24 11:02:00;;;;;;;0.45;0.45;;;;;;;13.45;100.00;99065.31;5039526;28;20522;-75
2024/02/24 11:04:26;;;;;;;0.50;0.50;;;;;;;13.16;100.00;99067.03;5055988;28;20050;-76
2024/02/24 11:06:53;;;;;;;0.47;0.47;;;;;;;13.00;100.00;99063.16;5039066;28;20087;-76
2024/02/24 11:09:28;;;;;;;0.50;0.50;;;;;;;12.91;100.00;99053.75;5022961;28;20530;-76
2024/02/24 11:12:13;;;;;;;0.50;0.50;;;;;;;12.91;100.00;99065.38;5055912;28;20028;-76
2024/02/24 11:14:40;;;;;;;0.50;0.50;;;;;;;12.84;100.00;99055.75;5055553;28;20524;-76
2024/02/24 11:17:06;;;;;;;0.50;0.50;;;;;;;12.81;100.00;99058.88;5072413;28;20470;-76
2024/02/24 11:19:45;;;;;;;0.50;0.50;;;;;;;12.86;100.00;99065.25;5055833;28;20115;-75
2024/02/24 11:22:24;;;;;;;0.50;0.50;;;;;;;12.70;100.00;99061.34;5055519;28;20036;-76
2024/02/24 11:25:01;;;;;;;0.50;0.50;;;;;;;12.41;100.00;99060.31;5056213;28;20055;-76
2024/02/24 11:27:29;;;;;;;0.50;0.50;;;;;;;12.21;100.00;99057.09;5072081;28;20120;-76